Pagrindinis puslapis
METAR-TAF:

METAR-TAF

Oro uostai :

Schwäbisch Hall, Vokietija

platuma: 49-07-06N, ilguma: 9-47-02E, Aukštis: 398 m

Dabartinis oras

Ataskaita buvo paskelbta 1 valandą ir 48 minutes, ne 18:20 UTC
Vėjas 5 kt iš Rytų
Temperatūra 11°C
Drėgmė 58%
Slėgis 1026 hPa
Matomumas 10 km arba daugiau

METAR: EDTY 201820Z 09005KT 9999 11/03 Q1026

Laikas: 22:08 (20:08 UTC)

Prognozė

Ataskaita buvo paskelbta 3 valandos ir 8 minutes, ne 17:00 UTC
Prognozė galioja nuo 20 metu 18 UTC su 21 metu 03 UTC
Vėjas 4 kt iš Rytų/Šiaurės Rytų
Matomumas 10 km arba daugiau
nėra debesų žemiau 1500 m ir nėra kamuolinių lietaus debesų

TAF: EDTY 201700Z 2018/2103 06004KT CAVOK

Orai ataskaitas ir orų prognozės (METAR, TAF).

turimą stotys yra geltonos ir raudonos taškus žemėlapyje.

Perkelti pele per norėdami pamatyti stoties vardą.

Tada spustelėkite, norėdami matyti oro stebėjimo ir prognozės.

Norėdami pakeisti žemėlapį: spustelėkite ant žalios mygtukų su juodo kryžiaus žemyn,; žalią mygtuką su brūkšneliu, jei norite nutolinti; arba žalių rodyklių gretimoms žemėlapius.


METAR-TAF: